Time;durP1;ratioP1;P1;durP2;ratioP2;P2;SDS_P1;SDS_P2;PMS_P1;PMS_P2;Temp;Humidity;BMP_temperature;BMP_pressure;BME280_temperature;BME280_humidity;BME280_pressure;Samples;Min_cycle;Max_cycle;Signal;HPM_P1;HPM_P2
2023/02/21 02:14:42;;;;;;;7.78;2.50;;;4.70;1.00;;;;;;5089247;28;20515;-56
2023/02/21 02:17:28;;;;;;;11.02;2.08;;;4.60;1.00;;;;;;5088499;28;20452;-56
2023/02/21 02:20:15;;;;;;;7.00;2.50;;;4.60;1.00;;;;;;5078849;28;20390;-56
2023/02/21 02:22:59;;;;;;;7.93;2.40;;;4.60;1.00;;;;;;5089472;28;20405;-56
2023/02/21 02:25:46;;;;;;;8.70;2.50;;;4.60;1.00;;;;;;5088660;28;20496;-55
2023/02/21 02:28:37;;;;;;;8.02;2.38;;;4.70;1.00;;;;;;5088999;28;20410;-56
2023/02/21 02:31:45;;;;;;;8.02;2.30;;;4.70;1.00;;;;;;5089170;28;20398;-56
2023/02/21 02:34:54;;;;;;;9.38;2.40;;;4.70;1.00;;;;;;5088726;28;20898;-56
2023/02/21 02:38:25;;;;;;;6.80;2.30;;;4.70;1.00;;;;;;5079657;28;20379;-56
2023/02/21 02:41:23;;;;;;;6.55;2.13;;;4.70;1.00;;;;;;5061379;28;20396;-56
2023/02/21 02:44:13;;;;;;;7.40;2.30;;;4.60;1.00;;;;;;5069992;28;20892;-56
2023/02/21 02:46:42;;;;;;;7.20;2.40;;;4.60;1.00;;;;;;5069503;28;20384;-56
2023/02/21 02:49:14;;;;;;;6.55;2.42;;;4.60;1.00;;;;;;5076203;28;20484;-56
2023/02/21 02:51:42;;;;;;;8.13;2.67;;;6.30;1.00;;;;;;5089427;28;20430;-56
2023/02/21 02:54:07;;;;;;;8.20;2.30;;;5.40;1.00;;;;;;5088406;28;20397;-56
2023/02/21 02:56:35;;;;;;;7.03;2.27;;;5.90;1.00;;;;;;5089854;28;20704;-56
2023/02/21 02:59:11;;;;;;;9.95;2.53;;;6.70;1.00;;;;;;5088158;28;20385;-56
2023/02/21 03:01:40;;;;;;;11.93;2.60;;;5.00;1.00;;;;;;5076002;28;20384;-56
2023/02/21 03:04:26;;;;;;;7.20;2.30;;;5.20;1.00;;;;;;5070883;28;20387;-56
2023/02/21 03:07:08;;;;;;;6.80;2.20;;;5.20;1.00;;;;;;5089654;28;20378;-56
2023/02/21 03:10:11;;;;;;;7.65;2.40;;;5.10;1.00;;;;;;5048099;28;20393;-56
2023/02/21 03:12:50;;;;;;;6.88;2.30;;;5.10;1.00;;;;;;5062028;28;20785;-56
2023/02/21 03:15:41;;;;;;;7.07;2.63;;;5.10;1.00;;;;;;5088134;28;20459;-56
2023/02/21 03:18:23;;;;;;;7.32;2.50;;;5.60;1.00;;;;;;5065930;28;20443;-57
2023/02/21 03:20:54;;;;;;;7.03;2.65;;;5.10;1.00;;;;;;5060372;28;20394;-56
2023/02/21 03:23:22;;;;;;;8.73;2.30;;;5.10;1.00;;;;;;5088238;28;20405;-56
2023/02/21 03:25:50;;;;;;;7.60;2.30;;;5.10;1.00;;;;;;5088937;28;20422;-56
2023/02/21 03:28:15;;;;;;;8.70;2.92;;;6.10;1.00;;;;;;5087057;28;20398;-56
2023/02/21 03:30:42;;;;;;;9.53;2.80;;;6.90;1.00;;;;;;5081925;28;20748;-56
2023/02/21 03:33:14;;;;;;;7.60;2.70;;;6.00;1.00;;;;;;5071708;28;20421;-56
2023/02/21 03:35:40;;;;;;;7.78;2.83;;;4.90;1.00;;;;;;5089154;28;20390;-57
2023/02/21 03:38:05;;;;;;;9.80;3.60;;;6.30;1.00;;;;;;5087048;28;20382;-56
2023/02/21 03:40:33;;;;;;;10.33;2.60;;;4.80;1.00;;;;;;5089658;28;20382;-56
2023/02/21 03:43:00;;;;;;;9.35;2.92;;;6.50;1.00;;;;;;5088431;28;20855;-56
2023/02/21 03:45:27;;;;;;;7.55;2.80;;;4.80;1.00;;;;;;5087455;28;20394;-56
2023/02/21 03:47:53;;;;;;;7.90;2.40;;;4.80;1.00;;;;;;5088236;28;20386;-56
2023/02/21 03:50:19;;;;;;;8.50;2.47;;;6.30;1.00;;;;;;5088215;28;21000;-56
2023/02/21 03:52:58;;;;;;;6.90;2.40;;;4.60;1.00;;;;;;5088948;28;20389;-56
2023/02/21 03:55:34;;;;;;;7.20;2.65;;;4.40;1.00;;;;;;5088591;28;20413;-56
2023/02/21 03:58:09;;;;;;;7.97;2.50;;;5.00;1.00;;;;;;5088188;28;20390;-56
2023/02/21 04:00:42;;;;;;;6.90;2.35;;;5.60;1.00;;;;;;5084255;28;20400;-56
2023/02/21 04:03:08;;;;;;;7.22;2.50;;;4.40;1.00;;;;;;5076727;28;20397;-56
2023/02/21 04:05:33;;;;;;;7.40;2.65;;;4.50;1.00;;;;;;5088725;28;20398;-56
2023/02/21 04:08:00;;;;;;;15.30;4.77;;;4.50;1.00;;;;;;5088192;28;20421;-56
2023/02/21 04:10:25;;;;;;;8.23;2.92;;;4.50;1.00;;;;;;5089660;28;20883;-56
2023/02/21 04:12:52;;;;;;;10.53;2.70;;;4.50;1.00;;;;;;5092055;28;20443;-56
2023/02/21 04:15:21;;;;;;;7.07;2.65;;;5.10;1.00;;;;;;5091652;28;20465;-56
2023/02/21 04:17:46;;;;;;;7.50;2.60;;;4.60;1.00;;;;;;5091664;28;20393;-56
2023/02/21 04:20:15;;;;;;;6.50;2.27;;;4.60;1.00;;;;;;5091471;28;20378;-56
2023/02/21 04:22:42;;;;;;;7.82;2.50;;;4.70;1.00;;;;;;5092175;28;20417;-55
2023/02/21 04:25:11;;;;;;;8.65;2.45;;;6.20;1.00;;;;;;5090754;28;20434;-56
2023/02/21 04:27:37;;;;;;;7.53;2.53;;;4.80;1.00;;;;;;5091919;28;20494;-56
2023/02/21 04:30:02;;;;;;;9.60;2.50;;;6.40;1.00;;;;;;5091173;28;20443;-56
2023/02/21 04:32:28;;;;;;;11.95;3.28;;;4.80;1.00;;;;;;5053074;28;20386;-56
2023/02/21 04:34:54;;;;;;;8.38;2.75;;;4.80;1.00;;;;;;5068877;28;20409;-56
2023/02/21 04:37:19;;;;;;;10.67;2.90;;;4.70;1.00;;;;;;5091513;28;20457;-56
2023/02/21 04:39:52;;;;;;;8.55;3.00;;;4.70;1.00;;;;;;5091832;28;20382;-56
2023/02/21 04:42:18;;;;;;;12.57;3.40;;;4.60;1.00;;;;;;5054553;28;20579;-56
2023/02/21 04:44:50;;;;;;;9.23;3.50;;;4.60;1.00;;;;;;5051703;28;20862;-56
2023/02/21 04:47:16;;;;;;;9.77;3.80;;;5.30;1.00;;;;;;5071199;28;20393;-56
2023/02/21 04:49:54;;;;;;;12.63;4.60;;;4.40;1.00;;;;;;5091812;28;20404;-56
2023/02/21 04:52:20;;;;;;;11.15;3.85;;;4.30;99.90;;;;;;5063407;28;20380;-56
2023/02/21 04:54:47;;;;;;;8.98;3.72;;;4.30;99.90;;;;;;5061192;28;20434;-56
2023/02/21 04:57:20;;;;;;;8.82;3.65;;;4.60;1.00;;;;;;5051326;28;20385;-56
2023/02/21 04:59:46;;;;;;;11.05;3.80;;;5.50;1.00;;;;;;5050964;28;20475;-56
2023/02/21 05:02:11;;;;;;;10.97;4.30;;;5.80;1.00;;;;;;5068292;28;20794;-56
2023/02/21 05:04:41;;;;;;;13.45;4.38;;;5.80;1.00;;;;;;5071304;28;20387;-56
2023/02/21 05:07:09;;;;;;;10.48;4.03;;;4.30;1.00;;;;;;5070765;28;20414;-56
2023/02/21 05:09:35;;;;;;;11.40;4.30;;;4.20;1.00;;;;;;5090955;28;20859;-56
2023/02/21 05:12:00;;;;;;;10.98;3.95;;;4.10;1.00;;;;;;5090724;28;20471;-56
2023/02/21 05:14:26;;;;;;;11.40;4.20;;;4.10;1.00;;;;;;5090621;28;20402;-56
2023/02/21 05:16:52;;;;;;;12.15;4.30;;;4.20;1.00;;;;;;5089433;28;20420;-56
2023/02/21 05:19:26;;;;;;;11.85;4.20;;;4.20;1.00;;;;;;5075667;28;20403;-56
2023/02/21 05:21:57;;;;;;;12.32;4.43;;;4.20;1.00;;;;;;5076028;28;20368;-56
2023/02/21 05:24:24;;;;;;;10.98;3.13;;;4.20;1.00;;;;;;5086148;28;22163;-56
2023/02/21 05:26:50;;;;;;;8.23;2.83;;;5.20;1.00;;;;;;5090687;28;20501;-56
2023/02/21 05:29:16;;;;;;;12.93;2.90;;;4.20;1.00;;;;;;5090135;28;20754;-56
2023/02/21 05:31:42;;;;;;;13.82;3.80;;;4.20;1.00;;;;;;5085571;28;20382;-54
2023/02/21 05:34:08;;;;;;;7.10;2.90;;;4.20;1.00;;;;;;5090073;28;20644;-55
2023/02/21 05:36:33;;;;;;;9.17;3.10;;;4.20;1.00;;;;;;5090775;28;20382;-56
2023/02/21 05:39:01;;;;;;;10.07;3.00;;;5.80;1.00;;;;;;5089153;28;20545;-56
2023/02/21 05:41:26;;;;;;;15.10;4.37;;;5.30;99.90;;;;;;5090672;28;20481;-56
2023/02/21 05:43:52;;;;;;;8.10;3.40;;;4.50;99.90;;;;;;5090028;28;20390;-56
2023/02/21 05:46:24;;;;;;;8.63;2.47;;;4.40;99.90;;;;;;5089451;28;20460;-57
2023/02/21 05:48:54;;;;;;;8.50;2.97;;;4.40;99.90;;;;;;5089802;28;20532;-56
2023/02/21 05:51:21;;;;;;;10.60;2.80;;;6.50;99.90;;;;;;5067369;28;20396;-56
2023/02/21 05:53:47;;;;;;;9.57;2.63;;;4.30;99.90;;;;;;5080126;28;20416;-56
2023/02/21 05:56:14;;;;;;;9.07;2.50;;;5.80;99.90;;;;;;5085019;28;20410;-57
2023/02/21 05:58:41;;;;;;;7.83;2.90;;;4.30;99.90;;;;;;5090119;28;20390;-56
2023/02/21 06:01:07;;;;;;;10.70;3.60;;;4.30;99.90;;;;;;5078387;28;20587;-56
2023/02/21 06:03:33;;;;;;;7.70;3.03;;;4.30;99.90;;;;;;5069680;28;20540;-56
2023/02/21 06:05:59;;;;;;;10.35;3.28;;;4.60;99.90;;;;;;5089784;28;20405;-56
2023/02/21 06:08:25;;;;;;;8.88;3.15;;;4.40;99.90;;;;;;5089583;28;20397;-56
2023/02/21 06:10:51;;;;;;;7.57;2.90;;;5.70;99.90;;;;;;5088565;28;20394;-56
2023/02/21 06:13:17;;;;;;;11.68;3.20;;;6.40;99.90;;;;;;5085570;28;20872;-56
2023/02/21 06:15:42;;;;;;;11.90;3.60;;;4.50;99.90;;;;;;5050125;28;20394;-56
2023/02/21 06:18:08;;;;;;;12.43;3.45;;;4.60;99.90;;;;;;5077015;28;20872;-56
2023/02/21 06:20:42;;;;;;;8.40;3.30;;;4.50;99.90;;;;;;5070070;28;20757;-56
2023/02/21 06:23:07;;;;;;;10.20;3.55;;;6.30;99.90;;;;;;5075467;28;20791;-56
2023/02/21 06:25:33;;;;;;;15.63;5.70;;;4.50;99.90;;;;;;5089717;28;20430;-57
2023/02/21 06:27:58;;;;;;;10.23;3.80;;;4.40;99.90;;;;;;5076010;28;20478;-56
2023/02/21 06:30:24;;;;;;;10.13;4.97;;;4.40;99.90;;;;;;5086224;28;20787;-56
2023/02/21 06:32:50;;;;;;;14.30;5.77;;;4.40;99.90;;;;;;5068654;28;20383;-56
2023/02/21 06:35:16;;;;;;;13.87;5.00;;;4.40;99.90;;;;;;5076902;28;20906;-56
2023/02/21 06:37:41;;;;;;;15.33;4.67;;;4.40;99.90;;;;;;5088180;28;20481;-57
2023/02/21 06:40:08;;;;;;;11.40;4.65;;;4.30;99.90;;;;;;5088536;28;20450;-56
2023/02/21 06:42:49;;;;;;;10.20;4.45;;;4.40;99.90;;;;;;5088897;28;20402;-56
2023/02/21 06:45:29;;;;;;;10.25;3.70;;;6.00;99.90;;;;;;5088725;28;20431;-56
2023/02/21 06:47:55;;;;;;;9.97;4.23;;;4.60;99.90;;;;;;5089152;28;20413;-56
2023/02/21 06:50:27;;;;;;;13.82;5.03;;;6.00;99.90;;;;;;5088731;28;20451;-56
2023/02/21 06:52:52;;;;;;;13.25;4.88;;;4.70;97.90;;;;;;5088702;28;20839;-56
2023/02/21 06:55:21;;;;;;;12.80;4.50;;;4.70;97.50;;;;;;5088684;28;20404;-56
2023/02/21 06:57:47;;;;;;;11.60;4.90;;;4.70;99.90;;;;;;5088981;28;20863;-56
2023/02/21 07:00:15;;;;;;;10.98;4.60;;;4.70;99.90;;;;;;5087856;28;20390;-56
2023/02/21 07:02:40;;;;;;;11.50;4.43;;;4.70;99.90;;;;;;5088979;28;20416;-57
2023/02/21 07:05:09;;;;;;;9.57;4.07;;;6.30;99.90;;;;;;5065520;28;20865;-57
2023/02/21 07:07:34;;;;;;;10.95;4.50;;;4.80;99.90;;;;;;5070217;28;20449;-57
2023/02/21 07:10:00;;;;;;;9.02;4.20;;;5.50;99.90;;;;;;5075341;28;20396;-57
2023/02/21 07:12:30;;;;;;;12.40;4.47;;;8.10;99.90;;;;;;5079136;28;20783;-57
2023/02/21 07:14:56;;;;;;;11.57;4.90;;;7.70;1.00;;;;;;5087200;28;20414;-59
2023/02/21 07:17:21;;;;;;;8.27;3.67;;;9.00;1.00;;;;;;5078008;28;20403;-58
2023/02/21 07:19:47;;;;;;;11.80;4.30;;;9.90;1.00;;;;;;5068791;28;20709;-58
2023/02/21 07:22:13;;;;;;;9.95;4.40;;;11.10;1.00;;;;;;5067561;28;20428;-58
2023/02/21 07:24:40;;;;;;;13.33;4.80;;;11.30;99.90;;;;;;5068631;28;20394;-57
2023/02/21 07:27:06;;;;;;;9.90;4.25;;;11.30;99.90;;;;;;5068967;28;20813;-58
2023/02/21 07:29:33;;;;;;;12.23;5.07;;;11.90;99.90;;;;;;5087995;28;20394;-58
2023/02/21 07:32:00;;;;;;;13.93;5.60;;;12.70;99.90;;;;;;5072958;28;20380;-58
2023/02/21 07:34:25;;;;;;;11.45;4.80;;;13.30;99.90;;;;;;5068311;28;20870;-58
2023/02/21 07:36:51;;;;;;;11.03;5.37;;;;;;;;;;5068635;28;20437;-59
2023/02/21 07:39:17;;;;;;;14.27;5.30;;;14.80;99.90;;;;;;5068485;28;20387;-58
2023/02/21 07:41:42;;;;;;;12.30;7.90;;;17.00;99.90;;;;;;5068851;28;20986;-59
2023/02/21 07:44:09;;;;;;;11.40;5.00;;;16.90;99.90;;;;;;5068097;28;20380;-59
2023/02/21 07:46:34;;;;;;;13.77;6.38;;;17.80;99.90;;;;;;5073229;28;20378;-58
2023/02/21 07:49:00;;;;;;;14.38;5.43;;;18.10;99.90;;;;;;5072477;28;20714;-59
2023/02/21 07:51:29;;;;;;;11.10;5.85;;;18.20;99.90;;;;;;5071416;28;20395;-59
2023/02/21 07:54:18;;;;;;;13.80;11.68;;;18.50;99.90;;;;;;5072716;28;20992;-59
2023/02/21 07:56:48;;;;;;;12.63;10.60;;;18.80;99.90;;;;;;5071872;28;20396;-59
2023/02/21 07:59:16;;;;;;;13.60;9.85;;;18.10;99.90;;;;;;5071394;28;20431;-60
2023/02/21 08:01:42;;;;;;;14.23;10.65;;;17.30;99.90;;;;;;5072293;28;20403;-59
2023/02/21 08:04:07;;;;;;;13.52;10.27;;;17.60;99.90;;;;;;5071550;28;20686;-59
2023/02/21 08:06:34;;;;;;;13.57;9.83;;;17.20;99.90;;;;;;5072160;28;20372;-59
2023/02/21 08:09:01;;;;;;;11.48;9.52;;;17.20;99.90;;;;;;5072009;28;20413;-59
2023/02/21 08:11:27;;;;;;;13.00;10.55;;;18.40;99.90;;;;;;5071687;28;20386;-57
2023/02/21 08:14:03;;;;;;;16.17;12.17;;;20.10;99.90;;;;;;5072272;28;20756;-57
2023/02/21 08:16:28;;;;;;;16.02;12.40;;;20.90;99.90;;;;;;5072141;28;20863;-60
2023/02/21 08:18:54;;;;;;;13.40;6.33;;;21.90;99.90;;;;;;5072037;28;20459;-60
2023/02/21 08:21:19;;;;;;;11.77;7.40;;;22.30;99.90;;;;;;5071141;28;20384;-60
2023/02/21 08:23:52;;;;;;;14.50;5.50;;;22.70;99.90;;;;;;5072013;28;20379;-60
2023/02/21 08:26:18;;;;;;;14.07;5.65;;;22.80;99.90;;;;;;5070718;28;20409;-60
2023/02/21 08:28:44;;;;;;;11.70;5.50;;;22.40;99.90;;;;;;5072120;28;20437;-60
2023/02/21 08:31:09;;;;;;;12.50;5.30;;;22.40;99.90;;;;;;5070920;28;20465;-60
2023/02/21 08:33:35;;;;;;;12.77;5.43;;;22.50;99.90;;;;;;5071429;28;20403;-60
2023/02/21 08:36:00;;;;;;;12.98;5.40;;;22.80;99.90;;;;;;5072085;28;20394;-60
2023/02/21 08:38:26;;;;;;;12.88;5.10;;;22.60;99.90;;;;;;5071175;28;20854;-58
2023/02/21 08:40:52;;;;;;;12.60;5.27;;;22.30;99.90;;;;;;5072114;28;20388;-60
2023/02/21 08:43:17;;;;;;;14.13;5.60;;;22.50;99.90;;;;;;5070863;28;20388;-59
2023/02/21 08:45:43;;;;;;;13.73;5.80;;;22.60;99.90;;;;;;5071554;28;20387;-59
2023/02/21 08:48:09;;;;;;;12.73;8.70;;;21.80;99.90;;;;;;5070474;28;20380;-59
2023/02/21 08:50:42;;;;;;;12.93;11.02;;;21.70;99.90;;;;;;5071859;28;20875;-60
2023/02/21 08:53:12;;;;;;;13.43;6.28;;;22.80;99.90;;;;;;5070652;28;20380;-59
2023/02/21 08:55:38;;;;;;;12.65;5.85;;;23.70;99.90;;;;;;5071140;28;20399;-60
2023/02/21 08:58:03;;;;;;;14.23;5.70;;;23.50;99.90;;;;;;5070812;28;20772;-60
2023/02/21 09:00:29;;;;;;;12.77;5.90;;;23.90;99.90;;;;;;5067973;28;20480;-60
2023/02/21 09:02:58;;;;;;;14.00;6.05;;;24.00;99.90;;;;;;5050920;28;20386;-60
2023/02/21 09:05:29;;;;;;;13.50;6.07;;;24.40;99.90;;;;;;5050556;28;20401;-60
2023/02/21 09:07:58;;;;;;;12.40;5.40;;;24.70;99.90;;;;;;5051008;28;20421;-60
2023/02/21 09:10:25;;;;;;;10.95;6.10;;;24.30;99.90;;;;;;5050344;28;20507;-60
2023/02/21 09:12:54;;;;;;;13.80;9.02;;;24.10;99.90;;;;;;5051149;28;20413;-60
2023/02/21 09:15:20;;;;;;;13.30;6.40;;;24.40;99.90;;;;;;5070629;28;20457;-60
2023/02/21 09:17:46;;;;;;;12.45;7.25;;;24.20;99.90;;;;;;5070784;28;20846;-60
2023/02/21 09:20:16;;;;;;;14.65;6.50;;;24.70;99.90;;;;;;5070244;28;20710;-60
2023/02/21 09:22:56;;;;;;;12.15;5.28;;;25.20;99.90;;;;;;5071071;28;20982;-60
2023/02/21 09:25:29;;;;;;;10.93;5.90;;;24.80;99.90;;;;;;5070128;28;20595;-60
2023/02/21 09:27:57;;;;;;;11.60;5.10;;;24.50;99.90;;;;;;5071253;28;20403;-61
2023/02/21 09:30:28;;;;;;;12.60;5.50;;;24.50;99.90;;;;;;5070390;28;21005;-60
2023/02/21 09:32:54;;;;;;;9.88;5.25;;;24.70;99.90;;;;;;5070630;28;20429;-60
2023/02/21 09:35:20;;;;;;;13.15;8.13;;;25.20;99.90;;;;;;5070191;28;20449;-60
2023/02/21 09:37:46;;;;;;;22.63;20.63;;;25.60;99.90;;;;;;5070430;28;20845;-60
2023/02/21 09:40:18;;;;;;;11.55;6.97;;;25.50;99.90;;;;;;5069640;28;20803;-60
2023/02/21 09:42:51;;;;;;;11.02;5.95;;;26.10;99.90;;;;;;5070646;28;20383;-60
2023/02/21 09:45:21;;;;;;;10.45;4.90;;;26.20;99.90;;;;;;5069921;28;20856;-61
2023/02/21 09:47:54;;;;;;;10.93;5.07;;;25.90;99.90;;;;;;5070226;28;20475;-60
2023/02/21 09:50:26;;;;;;;13.27;4.40;;;25.60;99.90;;;;;;5069914;28;20457;-60
2023/02/21 09:52:54;;;;;;;12.07;6.38;;;25.80;99.90;;;;;;5070373;28;20427;-60
2023/02/21 09:55:25;;;;;;;12.95;4.55;;;26.30;99.90;;;;;;5069440;28;20415;-60
2023/02/21 09:57:52;;;;;;;11.23;5.10;;;25.40;99.90;;;;;;5070144;28;20384;-60
2023/02/21 10:00:21;;;;;;;11.00;5.10;;;25.00;99.90;;;;;;5069302;28;20380;-60
2023/02/21 10:03:06;;;;;;;9.60;4.40;;;24.30;99.90;;;;;;5070108;28;20482;-61
2023/02/21 10:05:50;;;;;;;10.85;4.30;;;24.10;99.90;;;;;;5069991;28;20406;-60
2023/02/21 10:08:25;;;;;;;10.43;4.00;;;23.80;99.90;;;;;;5069073;28;20390;-60
2023/02/21 10:11:02;;;;;;;10.15;3.90;;;23.60;99.90;;;;;;5070076;28;20426;-61
2023/02/21 10:13:39;;;;;;;8.52;3.80;;;23.40;99.90;;;;;;5069022;28;20446;-60
2023/02/21 10:16:30;;;;;;;8.45;3.70;;;23.20;99.90;;;;;;5069684;28;20395;-60
2023/02/21 10:19:16;;;;;;;10.53;4.33;;;24.10;99.90;;;;;;5068446;28;20394;-60
2023/02/21 10:21:49;;;;;;;8.50;4.00;;;24.30;99.90;;;;;;5069729;28;20380;-60
2023/02/21 10:24:19;;;;;;;10.27;3.60;;;24.40;99.90;;;;;;5068713;28;20380;-60
2023/02/21 10:26:58;;;;;;;10.80;3.60;;;25.30;99.90;;;;;;5069598;28;20412;-60
2023/02/21 10:29:32;;;;;;;9.30;3.83;;;25.40;99.90;;;;;;5069117;28;20468;-61
2023/02/21 10:32:07;;;;;;;9.25;3.80;;;25.70;99.90;;;;;;5069311;28;20783;-60
2023/02/21 10:34:34;;;;;;;7.93;3.90;;;25.70;99.90;;;;;;5069243;28;20768;-60
2023/02/21 10:37:35;;;;;;;10.35;4.03;;;26.30;99.90;;;;;;5069612;28;20388;-60
2023/02/21 10:40:24;;;;;;;8.73;3.67;;;26.00;99.90;;;;;;5069217;28;20384;-60
2023/02/21 10:42:55;;;;;;;10.02;3.72;;;25.10;99.90;;;;;;5069465;28;20777;-60
2023/02/21 10:45:29;;;;;;;9.10;3.40;;;25.10;99.90;;;;;;5068883;28;20415;-60
2023/02/21 10:48:00;;;;;;;9.10;3.60;;;25.50;99.90;;;;;;5069101;28;20380;-60
2023/02/21 10:51:03;;;;;;;11.57;3.90;;;26.20;99.90;;;;;;5068920;28;20841;-60
2023/02/21 10:53:31;;;;;;;10.15;3.63;;;26.30;99.90;;;;;;5069014;28;20468;-60
2023/02/21 10:56:15;;;;;;;8.73;3.30;;;24.90;99.90;;;;;;5067851;28;20948;-60
2023/02/21 10:58:50;;;;;;;8.65;3.60;;;24.70;99.90;;;;;;5069536;28;20394;-60
2023/02/21 11:01:21;;;;;;;10.03;4.37;;;25.10;99.90;;;;;;5068981;28;20387;-59
2023/02/21 11:04:18;;;;;;;9.68;3.65;;;25.10;99.90;;;;;;5069215;28;20395;-60
2023/02/21 11:06:47;;;;;;;7.22;3.00;;;24.40;99.90;;;;;;5068366;28;20799;-60
2023/02/21 11:09:36;;;;;;;8.70;3.10;;;24.20;99.90;;;;;;5067327;28;20456;-59
2023/02/21 11:12:23;;;;;;;7.70;2.45;;;25.20;99.90;;;;;;5068894;28;20724;-60
2023/02/21 11:14:57;;;;;;;8.83;3.37;;;24.50;99.90;;;;;;5069183;28;20900;-60
2023/02/21 11:17:27;;;;;;;9.98;3.20;;;25.00;99.90;;;;;;5068565;28;20388;-60
2023/02/21 11:19:56;;;;;;;8.10;3.10;;;24.90;99.90;;;;;;5070650;28;20379;-60
2023/02/21 11:22:23;;;;;;;8.20;3.17;;;24.70;99.90;;;;;;5072391;28;20386;-60
2023/02/21 11:25:09;;;;;;;7.60;2.60;;;24.50;99.90;;;;;;5072807;28;20738;-59
2023/02/21 11:27:36;;;;;;;11.75;5.35;;;24.50;99.90;;;;;;5065591;28;20423;-59
2023/02/21 11:30:19;;;;;;;9.20;3.83;;;23.80;99.90;;;;;;5073071;28;20423;-59
2023/02/21 11:32:51;;;;;;;9.77;3.60;;;23.70;99.90;;;;;;5072960;28;20371;-59
2023/02/21 11:35:25;;;;;;;7.70;2.90;;;23.60;99.90;;;;;;5072043;28;20399;-59
2023/02/21 11:38:00;;;;;;;7.53;2.92;;;23.70;99.90;;;;;;5073132;28;20395;-59
2023/02/21 11:40:50;;;;;;;7.53;2.90;;;23.00;99.90;;;;;;5071974;28;20605;-60
2023/02/21 11:43:33;;;;;;;8.07;3.10;;;22.90;99.90;;;;;;5072224;28;20372;-60
2023/02/21 11:46:16;;;;;;;9.60;8.60;;;22.30;99.90;;;;;;5072948;28;20388;-60
2023/02/21 11:48:56;;;;;;;13.02;10.40;;;21.30;99.90;;;;;;5072546;28;20438;-59
2023/02/21 11:51:38;;;;;;;10.82;9.82;;;20.40;99.90;;;;;;5072024;28;20761;-60
2023/02/21 11:54:05;;;;;;;10.97;10.00;;;19.90;99.90;;;;;;5071994;28;20730;-59
2023/02/21 11:56:50;;;;;;;10.80;9.90;;;19.60;99.90;;;;;;5071934;28;20388;-59
2023/02/21 11:59:22;;;;;;;10.18;9.27;;;19.80;99.90;;;;;;5071914;28;20876;-59
2023/02/21 12:02:12;;;;;;;11.68;10.48;;;19.50;99.90;;;;;;5072492;28;20386;-59
2023/02/21 12:04:53;;;;;;;11.30;9.80;;;19.60;99.90;;;;;;5071958;28;20396;-59
2023/02/21 12:07:56;;;;;;;10.02;9.02;;;19.50;99.90;;;;;;5072024;28;20387;-59
2023/02/21 12:10:51;;;;;;;10.60;9.60;;;19.50;99.90;;;;;;5071639;28;20845;-59
2023/02/21 12:13:33;;;;;;;11.57;10.47;;;19.40;99.90;;;;;;5054962;28;20442;-59
2023/02/21 12:16:37;;;;;;;10.93;9.80;;;19.50;99.90;;;;;;5072345;28;20392;-59
2023/02/21 12:19:08;;;;;;;11.90;10.40;;;19.50;99.90;;;;;;5072319;28;20397;-59
2023/02/21 12:22:11;;;;;;;13.02;10.30;;;19.40;99.90;;;;;;5072206;28;20434;-58
2023/02/21 12:24:39;;;;;;;11.25;10.05;;;19.50;99.90;;;;;;5070662;28;20451;-58
2023/02/21 12:27:30;;;;;;;11.18;9.98;;;19.40;99.90;;;;;;5071572;28;20869;-58
2023/02/21 12:30:03;;;;;;;11.80;9.87;;;19.30;99.90;;;;;;5072170;28;20380;-58
2023/02/21 12:33:03;;;;;;;11.13;10.13;;;19.30;99.90;;;;;;5051531;28;20852;-58
2023/02/21 12:35:47;;;;;;;12.50;9.88;;;19.30;99.90;;;;;;5051206;28;20390;-58
2023/02/21 12:38:31;;;;;;;10.50;9.40;;;19.30;99.90;;;;;;5051363;28;20389;-58
2023/02/21 12:41:38;;;;;;;10.80;9.70;;;19.20;99.90;;;;;;5052159;28;20439;-57
2023/02/21 12:44:31;;;;;;;10.80;9.80;;;19.70;99.90;;;;;;5051587;28;20393;-58
2023/02/21 12:47:25;;;;;;;11.17;10.07;;;19.80;99.90;;;;;;5051782;28;20905;-58
2023/02/21 12:49:59;;;;;;;10.75;9.75;;;19.90;99.90;;;;;;5051748;28;20396;-58
2023/02/21 12:52:37;;;;;;;13.40;9.40;;;19.50;99.90;;;;;;5050956;28;20513;-57
2023/02/21 12:55:17;;;;;;;11.57;9.93;;;19.30;99.90;;;;;;5051193;28;20449;-58
2023/02/21 12:57:54;;;;;;;10.60;9.50;;;19.40;99.90;;;;;;5051690;28;20390;-57
2023/02/21 13:00:24;;;;;;;11.20;10.10;;;19.20;99.90;;;;;;5052775;28;20873;-57
2023/02/21 13:03:24;;;;;;;10.30;9.30;;;19.30;99.90;;;;;;5071424;28;20384;-57
2023/02/21 13:06:03;;;;;;;12.77;10.35;;;19.30;99.90;;;;;;5071476;28;20391;-57
2023/02/21 13:08:53;;;;;;;11.77;10.30;;;19.20;99.90;;;;;;5074032;28;20383;-58
2023/02/21 13:11:26;;;;;;;12.20;10.10;;;19.30;99.90;;;;;;5070759;28;20378;-58
2023/02/21 13:13:52;;;;;;;12.18;9.27;;;19.70;99.90;;;;;;5070829;28;20407;-60
2023/02/21 13:16:18;;;;;;;10.17;8.90;;;19.60;99.90;;;;;;5070222;28;20388;-58
2023/02/21 13:18:47;;;;;;;10.45;9.45;;;19.60;99.90;;;;;;5070870;28;20486;-58
2023/02/21 13:21:34;;;;;;;11.23;9.90;;;19.60;99.90;;;;;;5068451;28;20479;-58
2023/02/21 13:24:38;;;;;;;10.65;9.55;;;19.30;99.90;;;;;;5052718;28;20385;-58
2023/02/21 13:27:31;;;;;;;11.48;8.80;;;19.30;99.90;;;;;;5069519;28;20424;-59
2023/02/21 13:30:38;;;;;;;10.57;9.47;;;19.20;99.90;;;;;;5068306;28;20395;-57
2023/02/21 13:33:04;;;;;;;10.25;9.20;;;19.10;99.90;;;;;;5063662;28;20395;-57
2023/02/21 13:35:36;;;;;;;10.73;9.23;;;19.40;99.90;;;;;;5069925;28;20407;-58
2023/02/21 13:38:06;;;;;;;16.35;9.80;;;19.60;99.90;;;;;;5070617;28;20388;-58
2023/02/21 13:40:51;;;;;;;10.13;8.90;;;19.80;99.90;;;;;;5070258;28;20388;-56
2023/02/21 13:43:27;;;;;;;11.15;9.20;;;19.80;99.90;;;;;;5069475;28;20926;-56
2023/02/21 13:45:54;;;;;;;9.57;8.68;;;19.60;99.90;;;;;;5070796;28;20376;-56
2023/02/21 13:48:27;;;;;;;11.80;9.30;;;19.60;99.90;;;;;;5069700;28;20418;-56
2023/02/21 13:50:58;;;;;;;10.67;9.57;;;19.70;99.90;;;;;;5067111;28;20821;-56
2023/02/21 13:53:59;;;;;;;10.27;9.02;;;19.60;99.90;;;;;;5057595;28;20463;-58
2023/02/21 13:56:42;;;;;;;11.55;9.02;;;19.60;99.90;;;;;;5052161;28;20850;-56
2023/02/21 13:59:31;;;;;;;13.55;9.05;;;19.50;99.90;;;;;;5049969;28;20378;-61
2023/02/21 14:02:29;;;;;;;10.30;9.20;;;19.40;99.90;;;;;;5059130;28;20390;-56
2023/02/21 14:04:56;;;;;;;10.85;8.57;;;19.50;99.90;;;;;;5050156;28;20877;-56
2023/02/21 14:07:46;;;;;;;9.45;8.32;;;19.70;99.90;;;;;;5049466;28;20393;-55
2023/02/21 14:10:37;;;;;;;10.45;9.45;;;19.80;99.90;;;;;;5049335;28;20393;-56
2023/02/21 14:13:10;;;;;;;10.43;9.32;;;19.70;99.90;;;;;;5051292;28;20432;-56
2023/02/21 14:15:47;;;;;;;9.98;8.98;;;19.70;99.90;;;;;;5068306;28;20403;-56
2023/02/21 14:18:25;;;;;;;10.93;8.73;;;19.60;99.90;;;;;;5068700;28;20384;-56
2023/02/21 14:21:16;;;;;;;13.27;9.45;;;19.60;99.90;;;;;;5069624;28;20810;-58
2023/02/21 14:24:05;;;;;;;9.75;8.10;;;19.60;99.90;;;;;;5069957;28;20449;-56
2023/02/21 14:26:40;;;;;;;10.05;8.45;;;19.50;99.90;;;;;;5058304;28;20425;-57
2023/02/21 14:29:09;;;;;;;9.05;8.15;;;19.40;99.90;;;;;;5068078;28;20414;-57
2023/02/21 14:32:02;;;;;;;10.15;8.40;;;19.50;99.90;;;;;;5066409;28;20392;-56
2023/02/21 14:34:46;;;;;;;9.15;8.25;;;19.70;99.90;;;;;;5041247;28;20413;-56
2023/02/21 14:37:43;;;;;;;11.40;8.10;;;19.60;99.90;;;;;;5049061;28;20466;-57
2023/02/21 14:40:28;;;;;;;9.45;7.90;;;19.40;99.90;;;;;;5036635;28;20803;-62
2023/02/21 14:43:17;;;;;;;9.48;8.27;;;19.50;99.90;;;;;;5049816;28;20389;-56
2023/02/21 14:46:20;;;;;;;9.77;8.77;;;19.60;99.90;;;;;;5049573;28;20385;-56
2023/02/21 14:49:18;;;;;;;12.05;8.98;;;19.80;99.90;;;;;;5049589;28;20382;-56
2023/02/21 14:51:54;;;;;;;9.87;8.87;;;19.60;99.90;;;;;;5037785;28;20425;-55
2023/02/21 14:54:57;;;;;;;10.40;8.90;;;19.30;99.90;;;;;;5051994;28;20409;-55
2023/02/21 14:57:54;;;;;;;10.80;9.70;;;19.20;99.90;;;;;;5072386;28;20436;-56
2023/02/21 15:00:36;;;;;;;9.90;8.90;;;19.10;99.90;;;;;;5071300;28;20428;-56
2023/02/21 15:03:21;;;;;;;10.30;9.30;;;19.00;99.90;;;;;;5088866;28;20404;-56
2023/02/21 15:05:55;;;;;;;11.10;8.82;;;19.00;99.90;;;;;;5077888;28;20406;-56
2023/02/21 15:08:23;;;;;;;10.30;9.20;;;18.80;99.90;;;;;;5088710;28;20377;-56
2023/02/21 15:10:52;;;;;;;9.85;8.50;;;18.60;99.90;;;;;;5087981;28;20429;-57
2023/02/21 15:13:23;;;;;;;10.68;8.90;;;18.60;99.90;;;;;;5072911;28;20395;-56
2023/02/21 15:16:05;;;;;;;9.80;8.80;;;18.50;99.90;;;;;;5082067;28;20409;-56
2023/02/21 15:18:39;;;;;;;10.73;8.93;;;18.40;99.90;;;;;;5073507;28;20623;-56
2023/02/21 15:21:17;;;;;;;8.98;8.10;;;18.10;99.90;;;;;;5071560;28;20913;-56
2023/02/21 15:23:46;;;;;;;11.18;8.95;;;18.20;99.90;;;;;;5069478;28;20388;-56
2023/02/21 15:26:33;;;;;;;9.63;8.07;;;18.20;99.90;;;;;;5068336;28;20416;-56
2023/02/21 15:29:18;;;;;;;12.25;8.65;;;18.20;99.90;;;;;;5069240;28;20380;-55
2023/02/21 15:31:54;;;;;;;8.95;7.90;;;18.10;99.90;;;;;;5068891;28;20438;-56
2023/02/21 15:34:33;;;;;;;9.30;8.30;;;18.00;99.90;;;;;;5067982;28;20765;-56
2023/02/21 15:37:28;;;;;;;9.93;8.13;;;17.90;99.90;;;;;;5055437;28;20420;-55
2023/02/21 15:40:10;;;;;;;10.40;7.97;;;17.90;99.90;;;;;;5049188;28;20390;-55